Main page
METAR-TAF:

METAR-TAF

Airports :

Oil platform

Ekofisk, Norway

latitude: 56-33N, longitude: 003-15E, elevation: 3 m

Current weather observation

The report was made 39 minutes ago, at 16:50 UTC
Wind 26 kt from the South/Southwest
Temperature 7°C
Humidity 81%
Pressure 1011 hPa
Visibility 10 km or more
Few clouds at a height of 900 ft
Broken clouds at a height of 1500 ft

METAR: ENLE 251650Z 21026KT 9999 FEW009 BKN015 07/04 Q1011 W08/S4

Time: 18:29 (17:29 UTC)

Forecast

The report was made 3 hours and 29 minutes ago, at 14:00 UTC
Forecast valid from 25 at 15 UTC to 25 at 24 UTC
Wind 25 kt from the South/Southwest
Visibility 10 km or more
Scattered clouds at a height of 800 ft
Broken clouds at a height of 2000 ft
Temporary
from 25 at 15 UTC to 25 at 24 UTC
Broken clouds at a height of 800 ft

TAF: ENLE 251400Z 2515/2524 21025KT 9999 SCT008 BKN020 TEMPO 2515/2524 BKN008

Weather observations and forecasts of more than 4000 airports (METAR and TAF reports).

The available stations are represented by yellow and red dots on the map.

Hover mouse over dot to see the name of the station.

Then click to see weather observations and forecasts.

To change the map : click on the green buttons with a black cross to zoom in, on the green button with a dash to zoom out, or on the green arrows for adjacent maps.


METAR-TAF: